createdAt,value
2023-01-17T00:01:24.369Z,93757.53
2023-01-17T00:04:15.874Z,93748.97
2023-01-17T00:07:06.026Z,93751.28
2023-01-17T00:09:57.962Z,93751.38
2023-01-17T00:12:32.249Z,93748.72
2023-01-17T00:15:06.431Z,93747.97
2023-01-17T00:17:39.410Z,93760.06
2023-01-17T00:20:45.234Z,93758.19
2023-01-17T00:23:37.191Z,93760.84
2023-01-17T00:26:13.984Z,93752.63
2023-01-17T00:28:46.658Z,93761.75
2023-01-17T00:31:18.714Z,93769.72
2023-01-17T00:33:50.490Z,93758.47
2023-01-17T00:36:23.423Z,93757.06
2023-01-17T00:38:55.105Z,93767.38
2023-01-17T00:41:28.681Z,93759.16
2023-01-17T00:44:18.988Z,93760.00
2023-01-17T00:47:09.400Z,93760.00
2023-01-17T00:49:59.524Z,93761.50
2023-01-17T00:52:51.351Z,93766.78
2023-01-17T00:55:41.851Z,93765.28
2023-01-17T00:58:32.273Z,93759.16
2023-01-17T01:01:24.694Z,93762.09
2023-01-17T01:04:14.811Z,93750.25
2023-01-17T01:07:04.960Z,93748.31
2023-01-17T01:09:56.410Z,93758.13
2023-01-17T01:12:46.710Z,93762.63
2023-01-17T01:15:36.812Z,93759.66
2023-01-17T01:18:29.786Z,93758.94
2023-01-17T01:21:23.208Z,93761.72
2023-01-17T01:24:13.401Z,93748.91
2023-01-17T01:27:05.376Z,93747.16
2023-01-17T01:29:55.445Z,93748.00
2023-01-17T01:32:45.574Z,93751.88
2023-01-17T01:35:19.099Z,93756.16
2023-01-17T01:37:52.051Z,93753.53
2023-01-17T01:40:24.944Z,93758.16
2023-01-17T01:43:06.069Z,93758.97
2023-01-17T01:45:39.353Z,93756.72
2023-01-17T01:48:29.943Z,93758.72
2023-01-17T01:51:05.688Z,93754.22
2023-01-17T01:53:41.907Z,93758.47
2023-01-17T01:56:16.461Z,93755.50
2023-01-17T01:58:52.516Z,93761.63
2023-01-17T02:01:25.799Z,93760.16
2023-01-17T02:03:58.818Z,93754.84
2023-01-17T02:06:36.021Z,93752.63
2023-01-17T02:09:11.612Z,93744.34
2023-01-17T02:11:46.882Z,93737.16
2023-01-17T02:14:22.873Z,93745.53
2023-01-17T02:17:07.231Z,93738.34
2023-01-17T02:20:16.960Z,93737.16
2023-01-17T02:23:19.491Z,93732.94
2023-01-17T02:26:15.580Z,93727.16
2023-01-17T02:29:10.798Z,93728.91
2023-01-17T02:31:49.613Z,93721.28
2023-01-17T02:34:29.773Z,93719.63
2023-01-17T02:37:08.780Z,93716.03
2023-01-17T02:39:49.929Z,93715.50
2023-01-17T02:42:27.834Z,93715.28
2023-01-17T02:45:00.766Z,93710.66
2023-01-17T02:47:35.468Z,93713.56
2023-01-17T02:50:13.529Z,93721.44
2023-01-17T02:53:06.248Z,93711.56
2023-01-17T02:55:51.141Z,93708.47
2023-01-17T02:58:42.897Z,93707.38
2023-01-17T03:01:26.138Z,93708.22
2023-01-17T03:04:04.855Z,93692.81
2023-01-17T03:06:41.813Z,93686.50
2023-01-17T03:09:16.851Z,93690.38
2023-01-17T03:11:50.162Z,93688.56
2023-01-17T03:14:23.001Z,93692.03
2023-01-17T03:16:57.005Z,93689.84
2023-01-17T03:19:31.428Z,93687.28
2023-01-17T03:22:04.423Z,93687.63
2023-01-17T03:24:37.289Z,93692.88
2023-01-17T03:27:10.102Z,93681.44
2023-01-17T03:29:43.050Z,93682.50
2023-01-17T03:32:16.069Z,93682.38
2023-01-17T03:34:50.348Z,93688.38
2023-01-17T03:37:23.178Z,93683.31
2023-01-17T03:39:56.155Z,93673.38
2023-01-17T03:42:28.997Z,93668.69
2023-01-17T03:45:01.872Z,93667.88
2023-01-17T03:47:36.218Z,93670.03
2023-01-17T03:50:13.096Z,93668.44
2023-01-17T03:52:45.934Z,93659.59
2023-01-17T03:55:19.158Z,93663.66
2023-01-17T03:57:52.276Z,93660.09
2023-01-17T04:00:25.489Z,93657.31
2023-01-17T04:02:58.470Z,93651.47
2023-01-17T04:05:32.911Z,93655.84
2023-01-17T04:08:07.187Z,93655.69
2023-01-17T04:10:40.075Z,93652.16
2023-01-17T04:13:13.679Z,93650.13
2023-01-17T04:15:48.503Z,93637.88
2023-01-17T04:18:23.151Z,93633.97
2023-01-17T04:20:57.472Z,93642.94
2023-01-17T04:23:30.429Z,93631.44
2023-01-17T04:26:03.677Z,93627.53
2023-01-17T04:28:36.528Z,93619.47
2023-01-17T04:31:14.285Z,93619.31
2023-01-17T04:33:47.245Z,93622.63
2023-01-17T04:36:21.523Z,93616.84
2023-01-17T04:38:54.346Z,93616.00
2023-01-17T04:41:27.425Z,93611.75
2023-01-17T04:44:00.462Z,93598.84
2023-01-17T04:46:33.683Z,93598.75
2023-01-17T04:49:06.567Z,93594.09
2023-01-17T04:51:40.902Z,93587.19
2023-01-17T04:54:13.810Z,93584.03
2023-01-17T04:56:46.719Z,93582.00
2023-01-17T04:59:19.661Z,93591.69
2023-01-17T05:01:52.593Z,93586.69
2023-01-17T05:04:25.616Z,93586.16
2023-01-17T05:07:00.754Z,93583.44
2023-01-17T05:09:33.639Z,93584.06
2023-01-17T05:12:06.972Z,93588.88
2023-01-17T05:14:39.815Z,93580.13
2023-01-17T05:17:12.805Z,93583.44
2023-01-17T05:19:46.259Z,93578.19
2023-01-17T05:22:20.629Z,93577.81
2023-01-17T05:24:53.580Z,93574.09
2023-01-17T05:27:27.058Z,93575.28
2023-01-17T05:29:59.876Z,93570.78
2023-01-17T05:32:33.248Z,93565.19
2023-01-17T05:35:07.047Z,93564.84
2023-01-17T05:37:41.342Z,93571.66
2023-01-17T05:40:14.716Z,93563.75
2023-01-17T05:42:48.061Z,93549.03
2023-01-17T05:45:22.961Z,93544.53
2023-01-17T05:47:57.997Z,93548.31
2023-01-17T05:50:33.642Z,93549.09
2023-01-17T05:53:10.398Z,93546.03
2023-01-17T05:55:43.745Z,93561.44
2023-01-17T05:58:19.456Z,93563.75
2023-01-17T06:00:52.297Z,93567.81
2023-01-17T06:03:25.229Z,93558.69
2023-01-17T06:05:58.046Z,93555.63
2023-01-17T06:08:32.412Z,93558.19
2023-01-17T06:11:05.262Z,93546.38
2023-01-17T06:13:38.296Z,93556.06
2023-01-17T06:16:11.253Z,93557.84
2023-01-17T06:18:44.247Z,93552.81
2023-01-17T06:21:17.100Z,93549.31
2023-01-17T06:23:51.756Z,93552.97
2023-01-17T06:26:24.640Z,93535.91
2023-01-17T06:28:57.586Z,93535.81
2023-01-17T06:31:30.487Z,93529.69
2023-01-17T06:34:04.216Z,93520.94
2023-01-17T06:36:37.087Z,93519.72
2023-01-17T06:39:14.969Z,93512.91
2023-01-17T06:41:48.001Z,93518.13
2023-01-17T06:44:20.930Z,93513.94
2023-01-17T06:46:54.055Z,93511.66
2023-01-17T06:49:27.195Z,93512.75
2023-01-17T06:52:00.162Z,93506.72
2023-01-17T06:54:34.690Z,93507.91
2023-01-17T06:57:07.508Z,93501.88
2023-01-17T06:59:40.405Z,93497.06
2023-01-17T07:02:13.376Z,93495.63
2023-01-17T07:04:46.336Z,93501.28
2023-01-17T07:07:19.261Z,93502.81
2023-01-17T07:09:53.539Z,93498.31
2023-01-17T07:12:26.361Z,93493.50
2023-01-17T07:14:59.250Z,93495.69
2023-01-17T07:17:32.097Z,93487.47
2023-01-17T07:20:05.767Z,93491.19
2023-01-17T07:22:38.644Z,93487.13
2023-01-17T07:25:13.044Z,93484.94
2023-01-17T07:27:46.232Z,93487.56
2023-01-17T07:30:19.601Z,93485.00
2023-01-17T07:32:54.067Z,93476.00
2023-01-17T07:35:27.289Z,93481.69
2023-01-17T07:38:00.489Z,93470.41
2023-01-17T07:40:41.720Z,93467.84
2023-01-17T07:43:15.037Z,93473.53
2023-01-17T07:45:50.818Z,93467.59
2023-01-17T07:48:25.495Z,93461.66
2023-01-17T07:50:59.679Z,93464.78
2023-01-17T07:53:33.666Z,93460.34
2023-01-17T07:56:09.393Z,93466.91
2023-01-17T07:58:42.947Z,93470.06
2023-01-17T08:01:16.739Z,93470.91
2023-01-17T08:03:54.798Z,93470.31
2023-01-17T08:06:29.310Z,93458.72
2023-01-17T08:09:02.266Z,93451.34
2023-01-17T08:11:36.507Z,93445.78
2023-01-17T08:14:09.345Z,93436.09
2023-01-17T08:16:42.266Z,93441.53
2023-01-17T08:19:16.787Z,93430.69
2023-01-17T08:21:49.666Z,93422.88
2023-01-17T08:24:22.544Z,93410.94
2023-01-17T08:26:57.214Z,93403.50
2023-01-17T08:29:30.434Z,93394.97
2023-01-17T08:32:03.397Z,93387.88
2023-01-17T08:34:36.253Z,93389.13
2023-01-17T08:37:09.687Z,93396.03
2023-01-17T08:39:42.505Z,93390.09
2023-01-17T08:42:17.280Z,93392.06
2023-01-17T08:44:50.480Z,93392.53
2023-01-17T08:47:23.415Z,93404.69
2023-01-17T08:49:56.325Z,93401.00
2023-01-17T08:52:29.693Z,93395.03
2023-01-17T08:55:02.576Z,93378.88
2023-01-17T08:57:37.118Z,93366.94
2023-01-17T09:00:13.606Z,93354.97
2023-01-17T09:02:46.488Z,93351.63
2023-01-17T09:05:19.363Z,93346.81
2023-01-17T09:07:52.304Z,93345.00
2023-01-17T09:10:25.340Z,93329.97
2023-01-17T09:12:59.602Z,93323.28
2023-01-17T09:15:32.550Z,93319.94
2023-01-17T09:18:05.477Z,93331.38
2023-01-17T09:20:38.416Z,93318.25
2023-01-17T09:23:11.434Z,93321.34
2023-01-17T09:25:44.641Z,93333.94
2023-01-17T09:28:20.218Z,93331.38
2023-01-17T09:30:53.183Z,93320.13
2023-01-17T09:33:26.147Z,93314.94
2023-01-17T09:36:05.438Z,93310.50
2023-01-17T09:38:39.008Z,93310.63
2023-01-17T09:41:27.650Z,93310.38
2023-01-17T09:44:13.788Z,93299.88
2023-01-17T09:46:49.383Z,93313.59
2023-01-17T09:49:34.070Z,93310.25
2023-01-17T09:52:09.392Z,93311.09
2023-01-17T09:54:44.130Z,93305.16
2023-01-17T09:57:39.406Z,93301.47
2023-01-17T10:00:28.726Z,93301.19
2023-01-17T10:03:18.676Z,93304.66
2023-01-17T10:06:12.814Z,93304.72
2023-01-17T10:09:08.117Z,93304.06
2023-01-17T10:12:05.709Z,93298.50
2023-01-17T10:15:14.474Z,93297.44
2023-01-17T10:17:58.548Z,93298.25
2023-01-17T10:20:44.219Z,93294.94
2023-01-17T10:23:36.616Z,93300.69
2023-01-17T10:26:13.684Z,93300.75
2023-01-17T10:28:51.195Z,93294.34
2023-01-17T10:31:25.497Z,93297.81
2023-01-17T10:34:08.177Z,93286.53
2023-01-17T10:36:45.879Z,93283.50
2023-01-17T10:39:22.293Z,93282.03
2023-01-17T10:41:58.044Z,93283.94
2023-01-17T10:44:40.079Z,93289.28
2023-01-17T10:47:15.922Z,93274.94
2023-01-17T10:49:53.740Z,93267.00
2023-01-17T10:52:40.477Z,93269.28
2023-01-17T10:55:28.350Z,93252.28
2023-01-17T10:58:01.432Z,93248.09
2023-01-17T11:00:45.178Z,93245.47
2023-01-17T11:03:20.806Z,93240.56
2023-01-17T11:06:19.998Z,93228.84
2023-01-17T11:08:55.237Z,93219.38
2023-01-17T11:11:32.078Z,93218.28
2023-01-17T11:14:07.444Z,93205.38
2023-01-17T11:16:42.264Z,93208.06
2023-01-17T11:19:22.541Z,93197.81
2023-01-17T11:22:02.768Z,93205.78
2023-01-17T11:24:39.990Z,93197.44
2023-01-17T11:27:26.374Z,93198.97
2023-01-17T11:30:16.852Z,93189.50
2023-01-17T11:32:53.809Z,93177.75
2023-01-17T11:35:29.057Z,93170.94
2023-01-17T11:38:11.589Z,93163.31
2023-01-17T11:40:46.019Z,93157.66
2023-01-17T11:43:23.174Z,93153.09
2023-01-17T11:46:04.873Z,93161.03
2023-01-17T11:48:39.800Z,93152.72
2023-01-17T11:51:24.033Z,93149.69
2023-01-17T11:54:09.605Z,93156.53
2023-01-17T11:56:46.069Z,93152.34
2023-01-17T11:59:30.009Z,93145.50
2023-01-17T12:02:35.753Z,93148.16
2023-01-17T12:05:29.062Z,93139.06
2023-01-17T12:08:11.429Z,93133.38
2023-01-17T12:10:55.276Z,93118.94
2023-01-17T12:13:58.691Z,93123.88
2023-01-17T12:16:50.354Z,93116.69
2023-01-17T12:19:36.644Z,93115.56
2023-01-17T12:22:27.788Z,93111.38
2023-01-17T12:25:30.178Z,93097.31
2023-01-17T12:28:25.779Z,93098.47
2023-01-17T12:31:13.316Z,93082.53
2023-01-17T12:33:52.021Z,93074.53
2023-01-17T12:36:43.486Z,93073.03
2023-01-17T12:39:20.260Z,93063.16
2023-01-17T12:42:02.483Z,93054.06
2023-01-17T12:44:50.189Z,93049.88
2023-01-17T12:47:23.295Z,93049.50
2023-01-17T12:50:07.648Z,93052.53
2023-01-17T12:52:52.424Z,93055.97
2023-01-17T12:55:36.855Z,93064.31
2023-01-17T12:58:17.579Z,93070.38
2023-01-17T13:00:58.792Z,93071.16
2023-01-17T13:03:41.596Z,93075.34
2023-01-17T13:06:25.035Z,93064.72
2023-01-17T13:09:02.015Z,93054.84
2023-01-17T13:11:41.220Z,93059.41
2023-01-17T13:14:14.098Z,93055.63
2023-01-17T13:16:57.888Z,93052.22
2023-01-17T13:19:41.222Z,93037.78
2023-01-17T13:22:18.334Z,93044.63
2023-01-17T13:25:00.371Z,93049.56
2023-01-17T13:28:01.653Z,93038.19
2023-01-17T13:31:02.871Z,93047.66
2023-01-17T13:34:12.666Z,93046.53
2023-01-17T13:36:57.864Z,93047.66
2023-01-17T13:39:53.258Z,93046.53
2023-01-17T13:42:36.199Z,93047.28
2023-01-17T13:45:10.536Z,93045.00
2023-01-17T13:47:43.761Z,93038.94
2023-01-17T13:50:48.883Z,93041.59
2023-01-17T13:53:58.346Z,93054.13
2023-01-17T13:56:35.379Z,93049.97
2023-01-17T13:59:30.306Z,93052.22
2023-01-17T14:02:03.188Z,93050.72
2023-01-17T14:05:08.433Z,93054.50
2023-01-17T14:07:47.713Z,93057.91
2023-01-17T14:10:40.144Z,93058.31
2023-01-17T14:13:33.247Z,93059.03
2023-01-17T14:16:28.683Z,93060.94
2023-01-17T14:19:01.740Z,93055.66
2023-01-17T14:21:35.780Z,93066.59
2023-01-17T14:24:17.185Z,93061.69
2023-01-17T14:26:56.456Z,93080.63
2023-01-17T14:29:52.282Z,93089.31
2023-01-17T14:32:29.245Z,93102.19
2023-01-17T14:35:03.340Z,93115.06
2023-01-17T14:37:45.884Z,93115.81
2023-01-17T14:40:22.319Z,93123.38
2023-01-17T14:43:01.956Z,93121.47
2023-01-17T14:45:36.998Z,93111.97
2023-01-17T14:48:17.288Z,93108.19
2023-01-17T14:50:52.014Z,93104.00
2023-01-17T14:53:28.006Z,93103.22
2023-01-17T14:56:04.150Z,93102.09
2023-01-17T14:58:37.588Z,93107.38
2023-01-17T15:01:13.642Z,93110.38
2023-01-17T15:03:48.853Z,93116.06
2023-01-17T15:06:24.973Z,93107.72
2023-01-17T15:09:00.983Z,93121.31
2023-01-17T15:11:37.697Z,93120.16
2023-01-17T15:14:19.976Z,93109.22
2023-01-17T15:16:52.971Z,93098.59
2023-01-17T15:19:25.825Z,93104.25
2023-01-17T15:21:59.755Z,93105.38
2023-01-17T15:24:39.878Z,93101.97
2023-01-17T15:27:16.986Z,93098.94
2023-01-17T15:29:50.376Z,93096.31
2023-01-17T15:32:28.017Z,93100.47
2023-01-17T15:35:03.026Z,93099.72
2023-01-17T15:37:39.081Z,93101.59
2023-01-17T15:40:19.114Z,93099.34
2023-01-17T15:42:57.711Z,93102.38
2023-01-17T15:45:32.340Z,93100.84
2023-01-17T15:48:31.912Z,93112.97
2023-01-17T15:51:05.683Z,93111.41
2023-01-17T15:53:41.113Z,93106.47
2023-01-17T15:56:22.866Z,93107.59
2023-01-17T15:59:17.259Z,93116.28
2023-01-17T16:01:57.088Z,93114.38
2023-01-17T16:04:34.886Z,93113.19
2023-01-17T16:07:19.664Z,93112.78
2023-01-17T16:09:53.012Z,93116.53
2023-01-17T16:12:25.908Z,93117.25
2023-01-17T16:15:11.647Z,93133.50
2023-01-17T16:17:47.895Z,93127.06
2023-01-17T16:20:24.960Z,93128.94
2023-01-17T16:23:00.237Z,93141.81
2023-01-17T16:25:34.020Z,93135.41
2023-01-17T16:28:07.545Z,93133.91
2023-01-17T16:30:44.615Z,93139.63
2023-01-17T16:33:17.527Z,93143.00
2023-01-17T16:35:53.235Z,93151.34
2023-01-17T16:38:26.124Z,93151.00
2023-01-17T16:40:59.047Z,93154.75
2023-01-17T16:43:31.960Z,93143.78
2023-01-17T16:46:08.005Z,93153.97
2023-01-17T16:48:40.912Z,93170.56
2023-01-17T16:51:13.861Z,93160.34
2023-01-17T16:53:46.836Z,93164.13
2023-01-17T16:56:20.650Z,93156.16
2023-01-17T16:58:54.237Z,93162.59
2023-01-17T17:01:28.971Z,93168.97
2023-01-17T17:04:01.920Z,93165.19
2023-01-17T17:06:35.029Z,93179.91
2023-01-17T17:09:07.947Z,93182.91
2023-01-17T17:11:42.979Z,93182.91
2023-01-17T17:14:15.799Z,93182.50
2023-01-17T17:16:52.035Z,93191.22
2023-01-17T17:19:25.176Z,93196.91
2023-01-17T17:22:00.022Z,93207.50
2023-01-17T17:24:33.310Z,93214.66
2023-01-17T17:27:06.249Z,93200.31
2023-01-17T17:29:39.357Z,93199.56
2023-01-17T17:32:13.683Z,93212.41
2023-01-17T17:34:46.696Z,93214.66
2023-01-17T17:37:19.747Z,93210.50
2023-01-17T17:39:52.757Z,93214.66
2023-01-17T17:42:25.791Z,93219.97
2023-01-17T17:44:58.699Z,93227.94
2023-01-17T17:47:32.968Z,93225.66
2023-01-17T17:50:06.458Z,93228.31
2023-01-17T17:52:40.031Z,93220.41
2023-01-17T17:55:13.195Z,93235.94
2023-01-17T17:57:46.456Z,93224.59
2023-01-17T18:00:20.825Z,93229.13
2023-01-17T18:02:55.128Z,93223.78
2023-01-17T18:05:28.254Z,93230.59
2023-01-17T18:08:01.367Z,93228.31
2023-01-17T18:10:34.251Z,93234.31
2023-01-17T18:13:07.304Z,93216.91
2023-01-17T18:15:40.117Z,93224.78
2023-01-17T18:18:14.483Z,93225.16
2023-01-17T18:20:47.433Z,93231.91
2023-01-17T18:23:20.785Z,93239.44
2023-01-17T18:25:53.681Z,93247.66
2023-01-17T18:28:27.358Z,93240.44
2023-01-17T18:31:06.493Z,93246.81
2023-01-17T18:33:41.352Z,93238.03
2023-01-17T18:36:14.908Z,93240.94
2023-01-17T18:38:49.371Z,93232.94
2023-01-17T18:41:24.449Z,93234.31
2023-01-17T18:43:57.736Z,93241.00
2023-01-17T18:46:31.799Z,93236.69
2023-01-17T18:49:06.408Z,93238.47
2023-01-17T18:51:39.437Z,93238.00
2023-01-17T18:54:12.399Z,93234.84
2023-01-17T18:56:45.409Z,93242.69
2023-01-17T18:59:19.718Z,93235.00
2023-01-17T19:01:53.187Z,93244.38
2023-01-17T19:04:29.852Z,93237.50
2023-01-17T19:07:02.777Z,93247.19
2023-01-17T19:09:35.782Z,93245.97
2023-01-17T19:12:09.152Z,93244.75
2023-01-17T19:14:42.051Z,93253.72
2023-01-17T19:17:14.902Z,93253.69
2023-01-17T19:19:49.564Z,93257.78
2023-01-17T19:22:22.771Z,93265.63
2023-01-17T19:24:55.776Z,93262.56
2023-01-17T19:27:28.662Z,93266.72
2023-01-17T19:30:01.634Z,93261.78
2023-01-17T19:32:34.589Z,93272.69
2023-01-17T19:35:11.302Z,93260.19
2023-01-17T19:37:46.376Z,93269.97
2023-01-17T19:40:21.000Z,93287.28
2023-01-17T19:42:54.265Z,93283.47
2023-01-17T19:45:27.203Z,93285.69
2023-01-17T19:48:00.145Z,93287.16
2023-01-17T19:50:34.867Z,93296.19
2023-01-17T19:53:08.001Z,93290.50
2023-01-17T19:55:41.093Z,93292.03
2023-01-17T19:58:14.262Z,93288.63
2023-01-17T20:00:47.774Z,93286.75
2023-01-17T20:03:20.745Z,93295.84
2023-01-17T20:05:58.711Z,93297.41
2023-01-17T20:08:31.733Z,93301.25
2023-01-17T20:11:05.745Z,93294.56
2023-01-17T20:13:38.621Z,93285.22
2023-01-17T20:16:13.834Z,93284.97
2023-01-17T20:18:46.810Z,93279.06
2023-01-17T20:21:23.079Z,93292.31
2023-01-17T20:23:58.129Z,93297.59
2023-01-17T20:26:35.005Z,93305.94
2023-01-17T20:29:11.764Z,93305.50
2023-01-17T20:31:45.955Z,93306.97
2023-01-17T20:34:19.696Z,93319.06
2023-01-17T20:36:57.471Z,93318.38
2023-01-17T20:39:30.591Z,93306.69
2023-01-17T20:42:04.075Z,93310.50
2023-01-17T20:44:37.864Z,93299.97
2023-01-17T20:47:10.907Z,93302.63
2023-01-17T20:49:43.836Z,93309.03
2023-01-17T20:52:18.318Z,93301.88
2023-01-17T20:54:51.836Z,93307.13
2023-01-17T20:57:24.750Z,93299.47
2023-01-17T20:59:57.919Z,93294.16
2023-01-17T21:02:31.089Z,93295.97
2023-01-17T21:05:04.219Z,93284.94
2023-01-17T21:07:38.646Z,93293.91
2023-01-17T21:10:12.868Z,93279.84
2023-01-17T21:12:46.709Z,93285.41
2023-01-17T21:15:20.023Z,93291.38
2023-01-17T21:17:53.215Z,93289.38
2023-01-17T21:20:27.486Z,93294.94
2023-01-17T21:23:01.933Z,93290.38
2023-01-17T21:25:34.791Z,93281.22
2023-01-17T21:28:07.824Z,93297.41
2023-01-17T21:30:40.852Z,93294.00
2023-01-17T21:33:14.162Z,93281.91
2023-01-17T21:35:47.861Z,93285.31
2023-01-17T21:38:22.631Z,93286.91
2023-01-17T21:40:58.049Z,93288.50
2023-01-17T21:43:31.059Z,93290.41
2023-01-17T21:46:05.368Z,93290.84
2023-01-17T21:48:40.763Z,93284.88
2023-01-17T21:51:13.723Z,93293.91
2023-01-17T21:53:48.085Z,93289.38
2023-01-17T21:56:38.194Z,93295.00
2023-01-17T21:59:11.353Z,93304.72
2023-01-17T22:01:44.467Z,93314.81
2023-01-17T22:04:17.557Z,93312.84
2023-01-17T22:06:50.754Z,93321.81
2023-01-17T22:09:25.033Z,93323.28
2023-01-17T22:11:57.869Z,93316.00
2023-01-17T22:14:30.820Z,93314.41
2023-01-17T22:17:03.772Z,93320.31
2023-01-17T22:19:36.644Z,93308.94
2023-01-17T22:22:09.572Z,93322.38
2023-01-17T22:24:43.845Z,93312.56
2023-01-17T22:27:16.712Z,93312.81
2023-01-17T22:29:49.590Z,93318.44
2023-01-17T22:32:22.559Z,93329.34
2023-01-17T22:34:55.428Z,93325.94
2023-01-17T22:37:28.243Z,93328.56
2023-01-17T22:40:05.011Z,93338.34
2023-01-17T22:42:37.857Z,93336.47
2023-01-17T22:45:11.576Z,93338.00
2023-01-17T22:47:44.723Z,93335.38
2023-01-17T22:50:18.319Z,93341.41
2023-01-17T22:52:51.353Z,93345.91
2023-01-17T22:55:25.802Z,93347.78
2023-01-17T22:57:58.687Z,93346.25
2023-01-17T23:00:31.631Z,93355.25
2023-01-17T23:03:06.264Z,93354.84
2023-01-17T23:05:46.551Z,93348.03
2023-01-17T23:08:20.118Z,93342.38
2023-01-17T23:11:12.189Z,93346.88
2023-01-17T23:13:45.116Z,93342.63
2023-01-17T23:16:35.329Z,93346.38
2023-01-17T23:19:24.055Z,93341.44
2023-01-17T23:22:19.507Z,93342.19
2023-01-17T23:24:54.169Z,93345.94
2023-01-17T23:27:47.878Z,93344.00
2023-01-17T23:30:23.546Z,93351.81
2023-01-17T23:32:59.547Z,93342.75
2023-01-17T23:35:34.979Z,93344.97
2023-01-17T23:38:29.464Z,93343.00
2023-01-17T23:41:21.599Z,93344.13
2023-01-17T23:43:57.657Z,93339.56
2023-01-17T23:46:30.911Z,93347.03
2023-01-17T23:49:03.881Z,93339.81
2023-01-17T23:51:36.729Z,93340.91
2023-01-17T23:54:10.293Z,93347.28
2023-01-17T23:56:43.541Z,93349.50
2023-01-17T23:59:17.966Z,93357.41
